sensor_id;sensor_type;location;lat;lon;timestamp;pressure;altitude;pressure_sealevel;temperature;humidity
63347;BME280;49472;49.880;8.650;2023-05-07T00:01:49;-13531.38;;;-142.94;nan
63347;BME280;49472;49.880;8.650;2023-05-07T00:04:15;-13531.38;;;-142.94;nan
63347;BME280;49472;49.880;8.650;2023-05-07T00:06:40;-13531.38;;;-142.94;nan
63347;BME280;49472;49.880;8.650;2023-05-07T00:09:06;-13531.38;;;-142.94;nan
63347;BME280;49472;49.880;8.650;2023-05-07T00:11:32;-13531.38;;;-142.94;nan
63347;BME280;49472;49.880;8.650;2023-05-07T00:13:57;-13531.38;;;-142.94;nan
63347;BME280;49472;49.880;8.650;2023-05-07T00:16:22;-13531.38;;;-142.94;nan
63347;BME280;49472;49.880;8.650;2023-05-07T00:18:48;-13531.38;;;-142.94;nan
63347;BME280;49472;49.880;8.650;2023-05-07T00:21:13;-13531.38;;;-142.94;nan
63347;BME280;49472;49.880;8.650;2023-05-07T00:23:38;-13531.38;;;-142.94;nan
63347;BME280;49472;49.880;8.650;2023-05-07T00:26:04;-13531.38;;;-142.94;nan
63347;BME280;49472;49.880;8.650;2023-05-07T00:28:29;-13531.38;;;-142.94;nan
63347;BME280;49472;49.880;8.650;2023-05-07T00:30:55;-13531.38;;;-142.94;nan
63347;BME280;49472;49.880;8.650;2023-05-07T00:33:20;-13531.38;;;-142.94;nan
63347;BME280;49472;49.880;8.650;2023-05-07T00:35:47;-13531.38;;;-142.94;nan
63347;BME280;49472;49.880;8.650;2023-05-07T00:38:12;-13531.38;;;-142.94;nan
63347;BME280;49472;49.880;8.650;2023-05-07T00:40:37;-13531.38;;;-142.94;nan
63347;BME280;49472;49.880;8.650;2023-05-07T00:43:03;-13531.38;;;-142.94;nan
63347;BME280;49472;49.880;8.650;2023-05-07T00:45:28;-13531.38;;;-142.94;nan
63347;BME280;49472;49.880;8.650;2023-05-07T00:47:55;-13531.38;;;-142.94;nan
63347;BME280;49472;49.880;8.650;2023-05-07T00:50:21;-13531.38;;;-142.94;nan
63347;BME280;49472;49.880;8.650;2023-05-07T00:52:47;-13531.38;;;-142.94;nan
63347;BME280;49472;49.880;8.650;2023-05-07T00:55:13;-13531.38;;;-142.94;nan
63347;BME280;49472;49.880;8.650;2023-05-07T00:57:40;-13531.38;;;-142.94;nan
63347;BME280;49472;49.880;8.650;2023-05-07T01:00:07;-13531.38;;;-142.94;nan
63347;BME280;49472;49.880;8.650;2023-05-07T01:02:34;-13531.38;;;-142.94;nan
63347;BME280;49472;49.880;8.650;2023-05-07T01:05:00;-13531.38;;;-142.94;nan
63347;BME280;49472;49.880;8.650;2023-05-07T01:07:26;-13531.38;;;-142.94;nan
63347;BME280;49472;49.880;8.650;2023-05-07T01:09:52;-13531.38;;;-142.94;nan
63347;BME280;49472;49.880;8.650;2023-05-07T01:12:18;-13531.38;;;-142.94;nan
63347;BME280;49472;49.880;8.650;2023-05-07T01:14:44;-13531.38;;;-142.94;nan
63347;BME280;49472;49.880;8.650;2023-05-07T01:17:09;-13531.38;;;-142.94;nan
63347;BME280;49472;49.880;8.650;2023-05-07T01:19:34;-13531.38;;;-142.94;nan
63347;BME280;49472;49.880;8.650;2023-05-07T01:22:08;-13531.38;;;-142.94;nan
63347;BME280;49472;49.880;8.650;2023-05-07T01:24:35;-13531.38;;;-142.94;nan
63347;BME280;49472;49.880;8.650;2023-05-07T01:27:01;-13531.38;;;-142.94;nan
63347;BME280;49472;49.880;8.650;2023-05-07T01:29:27;-13531.38;;;-142.94;nan
63347;BME280;49472;49.880;8.650;2023-05-07T01:31:52;-13531.38;;;-142.94;nan
63347;BME280;49472;49.880;8.650;2023-05-07T01:34:20;-13531.38;;;-142.94;nan
63347;BME280;49472;49.880;8.650;2023-05-07T01:36:46;-13531.38;;;-142.94;nan
63347;BME280;49472;49.880;8.650;2023-05-07T01:39:13;-13531.38;;;-142.94;nan
63347;BME280;49472;49.880;8.650;2023-05-07T01:41:39;-13531.38;;;-142.94;nan
63347;BME280;49472;49.880;8.650;2023-05-07T01:44:05;-13531.38;;;-142.94;nan
63347;BME280;49472;49.880;8.650;2023-05-07T01:46:32;-13531.38;;;-142.94;nan
63347;BME280;49472;49.880;8.650;2023-05-07T01:48:58;-13531.38;;;-142.94;nan
63347;BME280;49472;49.880;8.650;2023-05-07T01:51:23;-13531.38;;;-142.94;nan
63347;BME280;49472;49.880;8.650;2023-05-07T01:53:49;-13531.38;;;-142.94;nan
63347;BME280;49472;49.880;8.650;2023-05-07T01:56:18;-13531.38;;;-142.94;nan
63347;BME280;49472;49.880;8.650;2023-05-07T01:58:45;-13531.38;;;-142.94;nan
63347;BME280;49472;49.880;8.650;2023-05-07T02:01:12;-13531.38;;;-142.94;nan
63347;BME280;49472;49.880;8.650;2023-05-07T02:03:38;-13531.38;;;-142.94;nan
63347;BME280;49472;49.880;8.650;2023-05-07T02:06:03;-13531.38;;;-142.94;nan
63347;BME280;49472;49.880;8.650;2023-05-07T02:08:28;-13531.38;;;-142.94;nan
63347;BME280;49472;49.880;8.650;2023-05-07T02:10:53;-13531.38;;;-142.94;nan
63347;BME280;49472;49.880;8.650;2023-05-07T02:13:19;-13531.38;;;-142.94;nan
63347;BME280;49472;49.880;8.650;2023-05-07T02:15:45;-13531.38;;;-142.94;nan
63347;BME280;49472;49.880;8.650;2023-05-07T02:18:15;-13531.38;;;-142.94;nan
63347;BME280;49472;49.880;8.650;2023-05-07T02:20:40;-13531.38;;;-142.94;nan
63347;BME280;49472;49.880;8.650;2023-05-07T02:23:06;-13531.38;;;-142.94;nan
63347;BME280;49472;49.880;8.650;2023-05-07T02:25:31;-13531.38;;;-142.94;nan
63347;BME280;49472;49.880;8.650;2023-05-07T02:27:56;-13531.38;;;-142.94;nan
63347;BME280;49472;49.880;8.650;2023-05-07T02:30:22;-13531.38;;;-142.94;nan
63347;BME280;49472;49.880;8.650;2023-05-07T02:32:47;-13531.38;;;-142.94;nan
63347;BME280;49472;49.880;8.650;2023-05-07T02:35:13;-13531.38;;;-142.94;nan
63347;BME280;49472;49.880;8.650;2023-05-07T02:37:38;-13531.38;;;-142.94;nan
63347;BME280;49472;49.880;8.650;2023-05-07T02:40:04;-13531.38;;;-142.94;nan
63347;BME280;49472;49.880;8.650;2023-05-07T02:42:29;-13531.38;;;-142.94;nan
63347;BME280;49472;49.880;8.650;2023-05-07T02:44:55;-13531.38;;;-142.94;nan
63347;BME280;49472;49.880;8.650;2023-05-07T02:47:20;-13531.38;;;-142.94;nan
63347;BME280;49472;49.880;8.650;2023-05-07T02:49:45;-13531.38;;;-142.94;nan
63347;BME280;49472;49.880;8.650;2023-05-07T02:52:10;-13531.38;;;-142.94;nan
63347;BME280;49472;49.880;8.650;2023-05-07T02:54:36;-13531.38;;;-142.94;nan
63347;BME280;49472;49.880;8.650;2023-05-07T02:57:01;-13531.38;;;-142.94;nan
63347;BME280;49472;49.880;8.650;2023-05-07T02:59:27;-13531.38;;;-142.94;nan
63347;BME280;49472;49.880;8.650;2023-05-07T03:01:52;-13531.38;;;-142.94;nan
63347;BME280;49472;49.880;8.650;2023-05-07T03:04:17;-13531.38;;;-142.94;nan
63347;BME280;49472;49.880;8.650;2023-05-07T03:06:43;-13531.38;;;-142.94;nan
63347;BME280;49472;49.880;8.650;2023-05-07T03:09:08;-13531.38;;;-142.94;nan
63347;BME280;49472;49.880;8.650;2023-05-07T03:11:34;-13531.38;;;-142.94;nan
63347;BME280;49472;49.880;8.650;2023-05-07T03:14:00;-13531.38;;;-142.94;nan
63347;BME280;49472;49.880;8.650;2023-05-07T03:16:25;-13531.38;;;-142.94;nan
63347;BME280;49472;49.880;8.650;2023-05-07T03:18:51;-13531.38;;;-142.94;nan
63347;BME280;49472;49.880;8.650;2023-05-07T03:21:17;-13531.38;;;-142.94;nan
63347;BME280;49472;49.880;8.650;2023-05-07T03:23:42;-13531.38;;;-142.94;nan
63347;BME280;49472;49.880;8.650;2023-05-07T03:26:07;-13531.38;;;-142.94;nan
63347;BME280;49472;49.880;8.650;2023-05-07T03:28:32;-13531.38;;;-142.94;nan
63347;BME280;49472;49.880;8.650;2023-05-07T03:30:58;-13531.38;;;-142.94;nan
63347;BME280;49472;49.880;8.650;2023-05-07T03:33:23;-13531.38;;;-142.94;nan
63347;BME280;49472;49.880;8.650;2023-05-07T03:35:48;-13531.38;;;-142.94;nan
63347;BME280;49472;49.880;8.650;2023-05-07T03:38:14;-13531.38;;;-142.94;nan
63347;BME280;49472;49.880;8.650;2023-05-07T03:40:39;-13531.38;;;-142.94;nan
63347;BME280;49472;49.880;8.650;2023-05-07T03:43:05;-13531.38;;;-142.94;nan
63347;BME280;49472;49.880;8.650;2023-05-07T03:45:30;-13531.38;;;-142.94;nan
63347;BME280;49472;49.880;8.650;2023-05-07T03:47:55;-13531.38;;;-142.94;nan
63347;BME280;49472;49.880;8.650;2023-05-07T03:50:21;-13531.38;;;-142.94;nan
63347;BME280;49472;49.880;8.650;2023-05-07T03:52:46;-13531.38;;;-142.94;nan
63347;BME280;49472;49.880;8.650;2023-05-07T03:55:11;-13531.38;;;-142.94;nan
63347;BME280;49472;49.880;8.650;2023-05-07T03:57:36;-13531.38;;;-142.94;nan
63347;BME280;49472;49.880;8.650;2023-05-07T04:00:02;-13531.38;;;-142.94;nan
63347;BME280;49472;49.880;8.650;2023-05-07T04:02:29;-13531.38;;;-142.94;nan
63347;BME280;49472;49.880;8.650;2023-05-07T04:04:54;-13531.38;;;-142.94;nan
63347;BME280;49472;49.880;8.650;2023-05-07T04:07:19;-13531.38;;;-142.94;nan
63347;BME280;49472;49.880;8.650;2023-05-07T04:09:45;-13531.38;;;-142.94;nan
63347;BME280;49472;49.880;8.650;2023-05-07T04:12:10;-13531.38;;;-142.94;nan
63347;BME280;49472;49.880;8.650;2023-05-07T04:14:35;-13531.38;;;-142.94;nan
63347;BME280;49472;49.880;8.650;2023-05-07T04:17:00;-13531.38;;;-142.94;nan
63347;BME280;49472;49.880;8.650;2023-05-07T04:19:26;-13531.38;;;-142.94;nan
63347;BME280;49472;49.880;8.650;2023-05-07T04:21:51;-13531.38;;;-142.94;nan
63347;BME280;49472;49.880;8.650;2023-05-07T04:24:16;-13531.38;;;-142.94;nan
63347;BME280;49472;49.880;8.650;2023-05-07T04:26:42;-13531.38;;;-142.94;nan
63347;BME280;49472;49.880;8.650;2023-05-07T04:29:07;-13531.38;;;-142.94;nan
63347;BME280;49472;49.880;8.650;2023-05-07T04:31:32;-13531.38;;;-142.94;nan
63347;BME280;49472;49.880;8.650;2023-05-07T04:33:58;-13531.38;;;-142.94;nan
63347;BME280;49472;49.880;8.650;2023-05-07T04:36:23;-13531.38;;;-142.94;nan
63347;BME280;49472;49.880;8.650;2023-05-07T04:38:52;-13531.38;;;-142.94;nan
63347;BME280;49472;49.880;8.650;2023-05-07T04:41:18;-13531.38;;;-142.94;nan
63347;BME280;49472;49.880;8.650;2023-05-07T04:43:43;-13531.38;;;-142.94;nan
63347;BME280;49472;49.880;8.650;2023-05-07T04:46:08;-13531.38;;;-142.94;nan
63347;BME280;49472;49.880;8.650;2023-05-07T04:48:33;-13531.38;;;-142.94;nan
63347;BME280;49472;49.880;8.650;2023-05-07T04:50:59;-13531.38;;;-142.94;nan
63347;BME280;49472;49.880;8.650;2023-05-07T04:53:24;-13531.38;;;-142.94;nan
63347;BME280;49472;49.880;8.650;2023-05-07T04:55:55;-13531.38;;;-142.94;nan
63347;BME280;49472;49.880;8.650;2023-05-07T04:58:21;-13531.38;;;-142.94;nan
63347;BME280;49472;49.880;8.650;2023-05-07T05:00:47;-13531.38;;;-142.94;nan
63347;BME280;49472;49.880;8.650;2023-05-07T05:03:12;-13531.38;;;-142.94;nan
63347;BME280;49472;49.880;8.650;2023-05-07T05:05:37;-13531.38;;;-142.94;nan
63347;BME280;49472;49.880;8.650;2023-05-07T05:08:03;-13531.38;;;-142.94;nan
63347;BME280;49472;49.880;8.650;2023-05-07T05:10:28;-13531.38;;;-142.94;nan
63347;BME280;49472;49.880;8.650;2023-05-07T05:12:53;-13531.38;;;-142.94;nan
63347;BME280;49472;49.880;8.650;2023-05-07T05:15:19;-13531.38;;;-142.94;nan
63347;BME280;49472;49.880;8.650;2023-05-07T05:17:44;-13531.38;;;-142.94;nan
63347;BME280;49472;49.880;8.650;2023-05-07T05:20:10;-13531.38;;;-142.94;nan
63347;BME280;49472;49.880;8.650;2023-05-07T05:22:36;-13531.38;;;-142.94;nan
63347;BME280;49472;49.880;8.650;2023-05-07T05:25:02;-13531.38;;;-142.94;nan
63347;BME280;49472;49.880;8.650;2023-05-07T05:27:28;-13531.38;;;-142.94;nan
63347;BME280;49472;49.880;8.650;2023-05-07T05:29:53;-13531.38;;;-142.94;nan
63347;BME280;49472;49.880;8.650;2023-05-07T05:32:19;-13531.38;;;-142.94;nan
63347;BME280;49472;49.880;8.650;2023-05-07T05:34:44;-13531.38;;;-142.94;nan
63347;BME280;49472;49.880;8.650;2023-05-07T05:37:09;-13531.38;;;-142.94;nan
63347;BME280;49472;49.880;8.650;2023-05-07T05:39:35;-13531.38;;;-142.94;nan
63347;BME280;49472;49.880;8.650;2023-05-07T05:42:01;-13531.38;;;-142.94;nan
63347;BME280;49472;49.880;8.650;2023-05-07T05:44:26;-13531.38;;;-142.94;nan
63347;BME280;49472;49.880;8.650;2023-05-07T05:46:52;-13531.38;;;-142.94;nan
63347;BME280;49472;49.880;8.650;2023-05-07T05:49:19;-13531.38;;;-142.94;nan
63347;BME280;49472;49.880;8.650;2023-05-07T05:51:44;-13531.38;;;-142.94;nan
63347;BME280;49472;49.880;8.650;2023-05-07T05:54:10;-13531.38;;;-142.94;nan
63347;BME280;49472;49.880;8.650;2023-05-07T05:56:36;-13531.38;;;-142.94;nan
63347;BME280;49472;49.880;8.650;2023-05-07T05:59:01;-13531.38;;;-142.94;nan
63347;BME280;49472;49.880;8.650;2023-05-07T06:01:27;-13531.38;;;-142.94;nan
63347;BME280;49472;49.880;8.650;2023-05-07T06:03:52;-13531.38;;;-142.94;nan
63347;BME280;49472;49.880;8.650;2023-05-07T06:06:17;-13531.38;;;-142.94;nan
63347;BME280;49472;49.880;8.650;2023-05-07T06:08:43;-13531.38;;;-142.94;nan
63347;BME280;49472;49.880;8.650;2023-05-07T06:11:08;-13531.38;;;-142.94;nan
63347;BME280;49472;49.880;8.650;2023-05-07T06:13:33;-13531.38;;;-142.94;nan
63347;BME280;49472;49.880;8.650;2023-05-07T06:15:59;-13531.38;;;-142.94;nan
63347;BME280;49472;49.880;8.650;2023-05-07T06:18:24;-13531.38;;;-142.94;nan
63347;BME280;49472;49.880;8.650;2023-05-07T06:20:51;-13531.38;;;-142.94;nan
63347;BME280;49472;49.880;8.650;2023-05-07T06:23:16;-13531.38;;;-142.94;nan
63347;BME280;49472;49.880;8.650;2023-05-07T06:25:42;-13531.38;;;-142.94;nan
63347;BME280;49472;49.880;8.650;2023-05-07T06:28:07;-13531.38;;;-142.94;nan
63347;BME280;49472;49.880;8.650;2023-05-07T06:30:34;-13531.38;;;-142.94;nan
63347;BME280;49472;49.880;8.650;2023-05-07T06:32:59;-13531.38;;;-142.94;nan
63347;BME280;49472;49.880;8.650;2023-05-07T06:35:25;-13531.38;;;-142.94;nan
63347;BME280;49472;49.880;8.650;2023-05-07T06:37:50;-13531.38;;;-142.94;nan
63347;BME280;49472;49.880;8.650;2023-05-07T06:40:15;-13531.38;;;-142.94;nan
63347;BME280;49472;49.880;8.650;2023-05-07T06:42:41;-13531.38;;;-142.94;nan
63347;BME280;49472;49.880;8.650;2023-05-07T06:45:08;-13531.38;;;-142.94;nan
63347;BME280;49472;49.880;8.650;2023-05-07T06:47:33;-13531.38;;;-142.94;nan
63347;BME280;49472;49.880;8.650;2023-05-07T06:49:58;-13531.38;;;-142.94;nan
63347;BME280;49472;49.880;8.650;2023-05-07T06:52:24;-13531.38;;;-142.94;nan
63347;BME280;49472;49.880;8.650;2023-05-07T06:54:49;-13531.38;;;-142.94;nan
63347;BME280;49472;49.880;8.650;2023-05-07T06:57:14;-13531.38;;;-142.94;nan
63347;BME280;49472;49.880;8.650;2023-05-07T06:59:40;-13531.38;;;-142.94;nan
63347;BME280;49472;49.880;8.650;2023-05-07T07:02:06;-13531.38;;;-142.94;nan
63347;BME280;49472;49.880;8.650;2023-05-07T07:04:31;-13531.38;;;-142.94;nan
63347;BME280;49472;49.880;8.650;2023-05-07T07:06:56;-13531.38;;;-142.94;nan
63347;BME280;49472;49.880;8.650;2023-05-07T07:09:22;-13531.38;;;-142.94;nan
63347;BME280;49472;49.880;8.650;2023-05-07T07:11:47;-13531.38;;;-142.94;nan
63347;BME280;49472;49.880;8.650;2023-05-07T07:14:12;-13531.38;;;-142.94;nan
63347;BME280;49472;49.880;8.650;2023-05-07T07:16:38;-13531.38;;;-142.94;nan
63347;BME280;49472;49.880;8.650;2023-05-07T07:19:03;-13531.38;;;-142.94;nan
63347;BME280;49472;49.880;8.650;2023-05-07T07:21:28;-13531.38;;;-142.94;nan
63347;BME280;49472;49.880;8.650;2023-05-07T07:23:55;-13531.38;;;-142.94;nan
63347;BME280;49472;49.880;8.650;2023-05-07T07:26:20;-13531.38;;;-142.94;nan
63347;BME280;49472;49.880;8.650;2023-05-07T07:28:46;-13531.38;;;-142.94;nan
63347;BME280;49472;49.880;8.650;2023-05-07T07:31:12;-13531.38;;;-142.94;nan
63347;BME280;49472;49.880;8.650;2023-05-07T07:33:37;-13531.38;;;-142.94;nan
63347;BME280;49472;49.880;8.650;2023-05-07T07:36:03;-13531.38;;;-142.94;nan
63347;BME280;49472;49.880;8.650;2023-05-07T07:38:28;-13531.38;;;-142.94;nan
63347;BME280;49472;49.880;8.650;2023-05-07T07:40:53;-13531.38;;;-142.94;nan
63347;BME280;49472;49.880;8.650;2023-05-07T07:43:19;-13531.38;;;-142.94;nan
63347;BME280;49472;49.880;8.650;2023-05-07T07:45:44;-13531.38;;;-142.94;nan
63347;BME280;49472;49.880;8.650;2023-05-07T07:48:11;-13531.38;;;-142.94;nan
63347;BME280;49472;49.880;8.650;2023-05-07T07:50:36;-13531.38;;;-142.94;nan
63347;BME280;49472;49.880;8.650;2023-05-07T07:53:02;-13531.38;;;-142.94;nan
63347;BME280;49472;49.880;8.650;2023-05-07T07:55:27;-13531.38;;;-142.94;nan
63347;BME280;49472;49.880;8.650;2023-05-07T07:57:52;-13531.38;;;-142.94;nan
63347;BME280;49472;49.880;8.650;2023-05-07T08:00:18;-13531.38;;;-142.94;nan
63347;BME280;49472;49.880;8.650;2023-05-07T08:02:43;-13531.38;;;-142.94;nan
63347;BME280;49472;49.880;8.650;2023-05-07T08:05:08;-13531.38;;;-142.94;nan
63347;BME280;49472;49.880;8.650;2023-05-07T08:07:34;-13531.38;;;-142.94;nan
63347;BME280;49472;49.880;8.650;2023-05-07T08:09:59;-13531.38;;;-142.94;nan
63347;BME280;49472;49.880;8.650;2023-05-07T08:12:24;-13531.38;;;-142.94;nan
63347;BME280;49472;49.880;8.650;2023-05-07T08:14:50;-13531.38;;;-142.94;nan
63347;BME280;49472;49.880;8.650;2023-05-07T08:17:15;-13531.38;;;-142.94;nan
63347;BME280;49472;49.880;8.650;2023-05-07T08:19:42;-13531.38;;;-142.94;nan
63347;BME280;49472;49.880;8.650;2023-05-07T08:22:08;-13531.38;;;-142.94;nan
63347;BME280;49472;49.880;8.650;2023-05-07T08:24:34;-13531.38;;;-142.94;nan
63347;BME280;49472;49.880;8.650;2023-05-07T08:26:59;-13531.38;;;-142.94;nan
63347;BME280;49472;49.880;8.650;2023-05-07T08:29:25;-13531.38;;;-142.94;nan
63347;BME280;49472;49.880;8.650;2023-05-07T08:31:50;-13531.38;;;-142.94;nan
63347;BME280;49472;49.880;8.650;2023-05-07T08:34:15;-13531.38;;;-142.94;nan
63347;BME280;49472;49.880;8.650;2023-05-07T08:36:41;-13531.38;;;-142.94;nan
63347;BME280;49472;49.880;8.650;2023-05-07T08:39:07;-13531.38;;;-142.94;nan
63347;BME280;49472;49.880;8.650;2023-05-07T08:41:32;-13531.38;;;-142.94;nan
63347;BME280;49472;49.880;8.650;2023-05-07T08:43:58;-13531.38;;;-142.94;nan
63347;BME280;49472;49.880;8.650;2023-05-07T08:46:31;-13531.38;;;-142.94;nan
63347;BME280;49472;49.880;8.650;2023-05-07T08:48:56;-13531.38;;;-142.94;nan
63347;BME280;49472;49.880;8.650;2023-05-07T08:51:22;-13531.38;;;-142.94;nan
63347;BME280;49472;49.880;8.650;2023-05-07T08:53:48;-13531.38;;;-142.94;nan
63347;BME280;49472;49.880;8.650;2023-05-07T08:56:15;-13531.38;;;-142.94;nan
63347;BME280;49472;49.880;8.650;2023-05-07T08:58:42;-13531.38;;;-142.94;nan
63347;BME280;49472;49.880;8.650;2023-05-07T09:01:09;-13531.38;;;-142.94;nan
63347;BME280;49472;49.880;8.650;2023-05-07T09:03:38;-13531.38;;;-142.94;nan
63347;BME280;49472;49.880;8.650;2023-05-07T09:06:04;-13531.38;;;-142.94;nan
63347;BME280;49472;49.880;8.650;2023-05-07T09:08:30;-13531.38;;;-142.94;nan
63347;BME280;49472;49.880;8.650;2023-05-07T09:10:55;-13531.38;;;-142.94;nan
63347;BME280;49472;49.880;8.650;2023-05-07T09:13:20;-13531.38;;;-142.94;nan
63347;BME280;49472;49.880;8.650;2023-05-07T09:15:46;-13531.38;;;-142.94;nan
63347;BME280;49472;49.880;8.650;2023-05-07T09:18:14;-13531.38;;;-142.94;nan
63347;BME280;49472;49.880;8.650;2023-05-07T09:20:40;-13531.38;;;-142.94;nan
63347;BME280;49472;49.880;8.650;2023-05-07T09:23:07;-13531.38;;;-142.94;nan
63347;BME280;49472;49.880;8.650;2023-05-07T09:25:34;-13529.94;;;-142.94;nan
63347;BME280;49472;49.880;8.650;2023-05-07T09:28:01;-13042.06;;;-142.94;nan
63347;BME280;49472;49.880;8.650;2023-05-07T09:30:33;-13042.06;;;-142.94;nan
63347;BME280;49472;49.880;8.650;2023-05-07T09:33:00;-13286.00;;;-142.94;nan
63347;BME280;49472;49.880;8.650;2023-05-07T09:35:26;-12554.13;;;-142.94;nan
63347;BME280;49472;49.880;8.650;2023-05-07T09:37:56;-13531.38;;;-142.94;nan
63347;BME280;49472;49.880;8.650;2023-05-07T09:40:23;-12554.13;;;-142.94;nan
63347;BME280;49472;49.880;8.650;2023-05-07T09:42:50;-10113.34;;;-142.94;nan
63347;BME280;49472;49.880;8.650;2023-05-07T09:45:28;-9380.75;;;-142.94;nan
63347;BME280;49472;49.880;8.650;2023-05-07T09:47:58;-9380.75;;;-142.94;nan
63347;BME280;49472;49.880;8.650;2023-05-07T09:50:34;-12066.13;;;-142.94;nan
63347;BME280;49472;49.880;8.650;2023-05-07T09:53:01;-11089.88;;;-142.94;nan
63347;BME280;49472;49.880;8.650;2023-05-07T09:55:28;-10357.50;;;-142.94;nan
63347;BME280;49472;49.880;8.650;2023-05-07T09:57:53;-9380.75;;;-142.94;nan
63347;BME280;49472;49.880;8.650;2023-05-07T10:00:21;-9136.53;;;-142.94;nan
63347;BME280;49472;49.880;8.650;2023-05-07T10:02:49;-8159.41;;;-142.94;nan
63347;BME280;49472;49.880;8.650;2023-05-07T10:05:16;-8159.41;;;-142.94;nan
63347;BME280;49472;49.880;8.650;2023-05-07T10:07:42;-7182.00;;;-142.94;nan
63347;BME280;49472;49.880;8.650;2023-05-07T10:10:08;-7182.00;;;-142.94;nan
63347;BME280;49472;49.880;8.650;2023-05-07T10:12:33;-5470.81;;;-142.94;nan
63347;BME280;49472;49.880;8.650;2023-05-07T10:15:08;-6204.28;;;-142.94;nan
63347;BME280;49472;49.880;8.650;2023-05-07T10:17:38;-5959.81;;;-142.94;nan
63347;BME280;49472;49.880;8.650;2023-05-07T10:20:08;-5470.81;;;-142.94;nan
63347;BME280;49472;49.880;8.650;2023-05-07T10:22:47;-5715.34;;;-142.94;nan
63347;BME280;49472;49.880;8.650;2023-05-07T10:25:20;-2535.31;;;-142.94;nan
63347;BME280;49472;49.880;8.650;2023-05-07T10:27:47;-2045.78;;;-142.94;nan
63347;BME280;49472;49.880;8.650;2023-05-07T10:30:26;-576.81;;;-142.94;nan
63347;BME280;49472;49.880;8.650;2023-05-07T10:32:59;647.81;;;-142.94;nan
63347;BME280;49472;49.880;8.650;2023-05-07T10:35:32;892.81;;;-142.94;nan
63347;BME280;49472;49.880;8.650;2023-05-07T10:37:58;2363.09;;;-142.94;nan
63347;BME280;49472;49.880;8.650;2023-05-07T10:40:23;5796.31;;;-142.94;nan
63347;BME280;49472;49.880;8.650;2023-05-07T10:43:02;4569.75;;;-142.94;nan
63347;BME280;49472;49.880;8.650;2023-05-07T10:45:30;3834.03;;;-142.94;nan
63347;BME280;49472;49.880;8.650;2023-05-07T10:48:13;6532.47;;;-142.94;nan
63347;BME280;49472;49.880;8.650;2023-05-07T10:50:39;6532.47;;;-142.94;nan
63347;BME280;49472;49.880;8.650;2023-05-07T10:53:20;7023.34;;;-142.94;nan
63347;BME280;49472;49.880;8.650;2023-05-07T10:58:43;10461.44;;;-142.94;nan
63347;BME280;49472;49.880;8.650;2023-05-07T11:01:08;7759.78;;;-142.94;nan
63347;BME280;49472;49.880;8.650;2023-05-07T11:04:12;14395.09;;;-142.94;nan
63347;BME280;49472;49.880;8.650;2023-05-07T11:06:37;12427.69;;;-142.94;nan
63347;BME280;49472;49.880;8.650;2023-05-07T11:09:03;13657.19;;;-142.94;nan
63347;BME280;49472;49.880;8.650;2023-05-07T11:11:48;19811.50;;;-142.94;nan
63347;BME280;49472;49.880;8.650;2023-05-07T11:17:07;21536.75;;;-142.94;nan
63347;BME280;49472;49.880;8.650;2023-05-07T11:19:51;20057.91;;;-142.94;nan
63347;BME280;49472;49.880;8.650;2023-05-07T11:24:59;30670.88;;;-142.94;nan
63347;BME280;49472;49.880;8.650;2023-05-07T11:27:26;30670.88;;;-142.94;nan
63347;BME280;49472;49.880;8.650;2023-05-07T11:29:51;41782.69;;;-142.94;nan
63347;BME280;49472;49.880;8.650;2023-05-07T11:34:59;48876.41;;;-142.94;nan
63347;BME280;49472;49.880;8.650;2023-05-07T11:37:26;49905.72;;;-142.94;nan
63347;BME280;49472;49.880;8.650;2023-05-07T11:40:05;49307.50;;;-142.94;nan
63347;BME280;49472;49.880;8.650;2023-05-07T11:42:38;50436.03;;;-142.94;nan
63347;BME280;49472;49.880;8.650;2023-05-07T11:45:05;50492.34;;;-142.94;nan
63347;BME280;49472;49.880;8.650;2023-05-07T11:47:31;50774.06;;;-142.94;nan
63347;BME280;49472;49.880;8.650;2023-05-07T11:49:56;51100.50;;;-142.94;nan
63347;BME280;49472;49.880;8.650;2023-05-07T11:52:23;51116.03;;;-142.94;nan
63347;BME280;49472;49.880;8.650;2023-05-07T11:54:53;51337.56;;;-142.94;nan
63347;BME280;49472;49.880;8.650;2023-05-07T11:57:20;51458.03;;;-142.94;nan
63347;BME280;49472;49.880;8.650;2023-05-07T11:59:45;51496.91;;;-142.94;nan
63347;BME280;49472;49.880;8.650;2023-05-07T12:02:14;51679.56;;;-142.94;nan
63347;BME280;49472;49.880;8.650;2023-05-07T12:04:40;51753.44;;;-142.94;nan
63347;BME280;49472;49.880;8.650;2023-05-07T12:07:11;51794.25;;;-142.94;nan
63347;BME280;49472;49.880;8.650;2023-05-07T12:09:37;51763.13;;;-142.94;nan
63347;BME280;49472;49.880;8.650;2023-05-07T12:12:03;51833.09;;;-142.94;nan
63347;BME280;49472;49.880;8.650;2023-05-07T12:14:29;51763.13;;;-142.94;nan
63347;BME280;49472;49.880;8.650;2023-05-07T12:16:55;51732.03;;;-142.94;nan
63347;BME280;49472;49.880;8.650;2023-05-07T12:19:20;51516.34;;;-142.94;nan
63347;BME280;49472;49.880;8.650;2023-05-07T12:21:46;51364.75;;;-142.94;nan
63347;BME280;49472;49.880;8.650;2023-05-07T12:24:14;51234.56;;;-142.94;nan
63347;BME280;49472;49.880;8.650;2023-05-07T12:26:39;51273.44;;;-142.94;nan
63347;BME280;49472;49.880;8.650;2023-05-07T12:29:07;51051.91;;;-142.94;nan
63347;BME280;49472;49.880;8.650;2023-05-07T12:31:33;51067.44;;;-142.94;nan
63347;BME280;49472;49.880;8.650;2023-05-07T12:33:58;50544.81;;;-142.94;nan
63347;BME280;49472;49.880;8.650;2023-05-07T12:36:23;50307.81;;;-142.94;nan
63347;BME280;49472;49.880;8.650;2023-05-07T12:38:49;50325.28;;;-142.94;nan
63347;BME280;49472;49.880;8.650;2023-05-07T12:41:15;50245.63;;;-142.94;nan
63347;BME280;49472;49.880;8.650;2023-05-07T12:43:44;50179.59;;;-142.94;nan
63347;BME280;49472;49.880;8.650;2023-05-07T12:46:09;50307.81;;;-142.94;nan
63347;BME280;49472;49.880;8.650;2023-05-07T12:48:38;49876.56;;;-142.94;nan
63347;BME280;49472;49.880;8.650;2023-05-07T12:51:08;50119.38;;;-142.94;nan
63347;BME280;49472;49.880;8.650;2023-05-07T12:53:40;50261.19;;;-142.94;nan
63347;BME280;49472;49.880;8.650;2023-05-07T12:56:05;50251.47;;;-142.94;nan
63347;BME280;49472;49.880;8.650;2023-05-07T12:58:33;49965.91;;;-142.94;nan
63347;BME280;49472;49.880;8.650;2023-05-07T13:01:01;49886.28;;;-142.94;nan